Time;durP1;ratioP1;P1;durP2;ratioP2;P2;SDS_P1;SDS_P2;PMS_P1;PMS_P2;Temp;Humidity;BMP_temperature;BMP_pressure;BME280_temperature;BME280_humidity;BME280_pressure;Samples;Min_cycle;Max_cycle;Signal;HPM_P1;HPM_P2
2021/07/04 00:02:24;;;;;;;18.77;17.00;;;;;;;;;;5033341;28;20491;-57
2021/07/04 00:04:52;;;;;;;18.37;16.70;;;;;;;;;;5033256;28;20465;-57
2021/07/04 00:07:20;;;;;;;16.87;15.33;;;;;;;;;;5032986;28;20445;-57
2021/07/04 00:09:47;;;;;;;18.20;16.50;;;;;;;;;;5033226;28;20453;-56
2021/07/04 00:12:14;;;;;;;17.73;16.23;;;;;;;;;;5032809;28;20445;-57
2021/07/04 00:14:41;;;;;;;18.00;16.40;;;;;;;;;;5032862;28;20469;-57
2021/07/04 00:17:09;;;;;;;17.60;15.80;;;;;;;;;;5032903;28;20503;-57
2021/07/04 00:19:36;;;;;;;17.40;15.80;;;;;;;;;;5032844;28;20436;-57
2021/07/04 00:22:05;;;;;;;16.67;15.20;;;;;;;;;;5032868;28;20449;-57
2021/07/04 00:24:32;;;;;;;17.60;16.00;;;;;;;;;;5035756;28;20461;-57
2021/07/04 00:26:59;;;;;;;17.90;16.30;;;;;;;;;;5037218;28;20444;-58
2021/07/04 00:29:27;;;;;;;16.93;15.43;;;;;;;;;;5037151;28;20453;-57
2021/07/04 00:31:54;;;;;;;16.73;15.23;;;;;;;;;;5036845;28;20455;-57
2021/07/04 00:34:21;;;;;;;17.67;16.10;;;;;;;;;;5037055;28;20489;-57
2021/07/04 00:36:48;;;;;;;16.93;15.43;;;;;;;;;;5037025;28;20503;-56
2021/07/04 00:39:17;;;;;;;18.03;16.43;;;;;;;;;;5036687;28;20444;-57
2021/07/04 00:41:44;;;;;;;16.80;15.30;;;;;;;;;;5036935;28;20507;-57
2021/07/04 00:44:11;;;;;;;18.00;16.40;;;;;;;;;;5036568;28;20973;-57
2021/07/04 00:46:39;;;;;;;18.40;16.70;;;;;;;;;;5036567;28;20448;-57
2021/07/04 00:49:06;;;;;;;17.30;15.50;;;;;;;;;;5036795;28;20499;-57
2021/07/04 00:51:34;;;;;;;16.90;15.40;;;;;;;;;;5036819;28;20817;-57
2021/07/04 00:54:01;;;;;;;17.73;16.03;;;;;;;;;;5036383;28;20488;-57
2021/07/04 00:56:30;;;;;;;18.30;16.70;;;;;;;;;;5036479;28;20452;-56
2021/07/04 00:58:57;;;;;;;18.53;16.83;;;;;;;;;;5036351;28;20449;-58
2021/07/04 01:01:25;;;;;;;15.70;14.30;;;;;;;;;;5036691;28;20467;-58
2021/07/04 01:03:52;;;;;;;17.53;15.83;;;;;;;;;;5036630;28;20465;-58
2021/07/04 01:06:19;;;;;;;16.17;14.73;;;;;;;;;;5036286;28;20941;-58
2021/07/04 01:08:46;;;;;;;17.43;15.73;;;;;;;;;;5036516;28;20449;-58
2021/07/04 01:11:14;;;;;;;17.03;15.47;;;;;;;;;;5036473;28;20506;-58
2021/07/04 01:13:42;;;;;;;16.57;15.13;;;;;;;;;;5035928;28;20897;-58
2021/07/04 01:16:10;;;;;;;16.30;14.80;;;;;;;;;;5036486;28;20444;-57
2021/07/04 01:18:37;;;;;;;17.87;16.37;;;;;;;;;;5036200;28;20449;-58
2021/07/04 01:21:06;;;;;;;16.17;14.67;;;;;;;;;;5036418;28;20453;-57
2021/07/04 01:23:35;;;;;;;17.33;15.80;;;;;;;;;;5035911;28;20457;-58
2021/07/04 01:26:02;;;;;;;17.30;15.70;;;;;;;;;;5036227;28;20449;-58
2021/07/04 01:28:30;;;;;;;17.50;15.80;;;;;;;;;;5035834;28;20452;-58
2021/07/04 01:30:59;;;;;;;18.17;16.27;;;;;;;;;;5035786;28;20456;-58
2021/07/04 01:33:27;;;;;;;17.03;15.23;;;;;;;;;;5035990;28;20824;-58
2021/07/04 01:35:54;;;;;;;17.70;16.00;;;;;;;;;;5036835;28;20575;-60
2021/07/04 01:38:22;;;;;;;18.67;15.60;;;;;;;;;;5035710;28;20451;-59
2021/07/04 01:40:52;;;;;;;16.43;14.83;;;;;;;;;;5035619;28;20894;-60
2021/07/04 01:43:19;;;;;;;15.77;14.27;;;;;;;;;;5035552;28;20475;-60
2021/07/04 01:45:46;;;;;;;17.60;15.90;;;;;;;;;;5035526;28;20941;-60
2021/07/04 01:48:14;;;;;;;16.90;15.20;;;;;;;;;;5035793;28;20468;-60
2021/07/04 01:50:44;;;;;;;16.17;14.70;;;;;;;;;;5035499;28;20540;-60
2021/07/04 01:53:11;;;;;;;16.67;15.10;;;;;;;;;;5059229;22;20493;-61
2021/07/04 01:55:38;;;;;;;17.00;15.40;;;;;;;;;;5016149;28;20462;-61
2021/07/04 01:58:07;;;;;;;17.10;15.50;;;;;;;;;;5015681;28;20450;-60
2021/07/04 02:00:35;;;;;;;16.67;15.13;;;;;;;;;;5016458;28;20457;-62
2021/07/04 02:03:03;;;;;;;17.80;16.10;;;;;;;;;;5015263;28;20445;-62
2021/07/04 02:05:31;;;;;;;15.60;14.30;;;;;;;;;;5015608;28;20537;-61
2021/07/04 02:07:58;;;;;;;16.93;15.43;;;;;;;;;;5015275;28;20500;-62
2021/07/04 02:10:26;;;;;;;17.70;15.97;;;;;;;;;;5015511;28;20454;-62
2021/07/04 02:12:54;;;;;;;16.13;14.73;;;;;;;;;;5015466;28;20447;-61
2021/07/04 02:15:24;;;;;;;16.03;14.33;;;;;;;;;;5015440;28;20864;-61
2021/07/04 02:17:51;;;;;;;15.60;14.13;;;;;;;;;;5015117;28;20953;-61
2021/07/04 02:20:26;;;;;;;15.40;13.80;;;;;;;;;;5014906;28;20788;-62
2021/07/04 02:22:54;;;;;;;15.90;14.30;;;;;;;;;;5015462;28;20434;-61
2021/07/04 02:25:21;;;;;;;15.53;13.90;;;;;;;;;;5015460;28;20465;-61
2021/07/04 02:27:48;;;;;;;13.70;12.50;;;;;;;;;;5014904;28;20926;-60
2021/07/04 02:30:16;;;;;;;14.63;13.33;;;;;;;;;;5015171;28;20525;-61
2021/07/04 02:32:45;;;;;;;15.97;14.00;;;;;;;;;;5015068;28;20855;-61
2021/07/04 02:35:12;;;;;;;14.80;13.50;;;;;;;;;;5014617;28;20535;-61
2021/07/04 02:37:40;;;;;;;14.23;12.70;;;;;;;;;;5014858;28;20450;-61
2021/07/04 02:40:08;;;;;;;15.47;13.90;;;;;;;;;;5014820;28;20504;-61
2021/07/04 02:42:35;;;;;;;14.33;13.03;;;;;;;;;;5015256;28;20446;-61
2021/07/04 02:45:02;;;;;;;13.80;12.47;;;;;;;;;;5014941;28;20466;-61
2021/07/04 02:47:29;;;;;;;13.90;12.60;;;;;;;;;;5013996;28;20508;-61
2021/07/04 02:49:58;;;;;;;15.60;14.00;;;;;;;;;;5014678;28;20516;-61
2021/07/04 02:52:25;;;;;;;14.00;12.70;;;;;;;;;;5015156;28;20449;-61
2021/07/04 02:54:53;;;;;;;12.90;11.60;;;;;;;;;;5014345;28;20934;-61
2021/07/04 02:57:20;;;;;;;13.63;12.50;;;;;;;;;;5014753;28;20450;-61
2021/07/04 02:59:47;;;;;;;12.80;11.60;;;;;;;;;;5014500;28;20505;-61
2021/07/04 03:02:14;;;;;;;14.03;12.73;;;;;;;;;;5014505;28;20954;-61
2021/07/04 03:04:42;;;;;;;13.10;12.00;;;;;;;;;;5014310;28;20458;-61
2021/07/04 03:07:11;;;;;;;13.27;12.07;;;;;;;;;;5014687;28;20453;-61
2021/07/04 03:09:39;;;;;;;12.50;11.40;;;;;;;;;;5014172;28;20450;-61
2021/07/04 03:12:07;;;;;;;13.23;12.13;;;;;;;;;;5014552;28;20461;-61
2021/07/04 03:14:34;;;;;;;12.27;11.07;;;;;;;;;;5014281;28;21024;-61
2021/07/04 03:17:01;;;;;;;14.10;12.90;;;;;;;;;;5014580;28;20442;-61
2021/07/04 03:19:29;;;;;;;12.47;11.47;;;;;;;;;;5014571;28;20516;-61
2021/07/04 03:21:56;;;;;;;13.83;12.30;;;;;;;;;;5014266;28;20508;-61
2021/07/04 03:24:25;;;;;;;12.57;11.47;;;;;;;;;;5014166;28;20462;-61
2021/07/04 03:26:52;;;;;;;14.50;13.00;;;;;;;;;;5014302;28;20445;-61
2021/07/04 03:29:19;;;;;;;12.07;11.07;;;;;;;;;;5014165;28;20500;-61
2021/07/04 03:31:46;;;;;;;13.20;12.00;;;;;;;;;;5014139;28;20446;-61
2021/07/04 03:34:14;;;;;;;13.27;12.07;;;;;;;;;;5013900;28;20486;-60
2021/07/04 03:36:41;;;;;;;12.40;11.20;;;;;;;;;;5014077;28;20800;-61
2021/07/04 03:39:08;;;;;;;12.60;11.30;;;;;;;;;;5013766;28;20822;-61
2021/07/04 03:41:37;;;;;;;12.10;10.90;;;;;;;;;;5014001;28;20449;-61
2021/07/04 03:44:04;;;;;;;13.10;11.43;;;;;;;;;;5013665;28;20461;-61
2021/07/04 03:46:32;;;;;;;11.93;10.77;;;;;;;;;;5013903;28;20453;-61
2021/07/04 03:48:59;;;;;;;12.53;11.40;;;;;;;;;;5013923;28;20516;-61
2021/07/04 03:51:26;;;;;;;12.00;11.00;;;;;;;;;;5014781;28;20453;-61
2021/07/04 03:53:54;;;;;;;12.43;11.23;;;;;;;;;;5013432;28;20884;-61
2021/07/04 03:56:21;;;;;;;12.47;11.37;;;;;;;;;;5013821;28;20450;-61
2021/07/04 03:58:50;;;;;;;10.90;9.80;;;;;;;;;;5013213;28;20544;-61
2021/07/04 04:01:20;;;;;;;11.40;10.50;;;;;;;;;;5013763;28;20446;-62
2021/07/04 04:03:48;;;;;;;10.20;9.30;;;;;;;;;;5013761;28;20466;-61
2021/07/04 04:08:19;;;;;;;9.80;8.90;;;;;;;;;;5091558;27;20553;-61
2021/07/04 04:10:47;;;;;;;10.60;9.70;;;;;;;;;;5091093;28;20446;-60
2021/07/04 04:13:14;;;;;;;9.07;8.37;;;;;;;;;;5090997;28;20468;-61
2021/07/04 04:15:41;;;;;;;9.17;8.40;;;;;;;;;;5091544;28;20461;-61
2021/07/04 04:18:08;;;;;;;9.77;8.80;;;;;;;;;;5092260;28;20446;-61
2021/07/04 04:20:35;;;;;;;7.73;7.13;;;;;;;;;;5091456;28;20511;-59
2021/07/04 04:23:03;;;;;;;9.03;8.20;;;;;;;;;;5091262;28;20447;-61
2021/07/04 04:25:31;;;;;;;8.77;7.73;;;;;;;;;;5091292;28;20503;-60
2021/07/04 04:27:59;;;;;;;8.37;7.50;;;;;;;;;;5091135;28;20474;-61
2021/07/04 04:30:26;;;;;;;8.83;7.90;;;;;;;;;;5090541;28;20449;-61
2021/07/04 04:32:53;;;;;;;9.20;8.30;;;;;;;;;;5090846;28;20443;-60
2021/07/04 04:35:21;;;;;;;8.40;7.70;;;;;;;;;;5090652;28;20525;-61
2021/07/04 04:37:48;;;;;;;8.77;8.07;;;;;;;;;;5090433;28;20450;-63
2021/07/04 04:40:15;;;;;;;8.90;8.10;;;;;;;;;;5090504;28;20577;-62
2021/07/04 04:42:44;;;;;;;8.97;7.87;;;;;;;;;;5090203;28;20452;-62
2021/07/04 04:45:11;;;;;;;8.17;7.47;;;;;;;;;;5090375;28;20865;-61
2021/07/04 04:47:39;;;;;;;9.30;8.40;;;;;;;;;;5090372;28;20484;-63
2021/07/04 04:50:07;;;;;;;10.37;7.90;;;;;;;;;;5090410;28;20447;-62
2021/07/04 04:52:34;;;;;;;9.80;8.90;;;;;;;;;;5090698;28;20788;-60
2021/07/04 04:55:01;;;;;;;9.27;8.33;;;;;;;;;;5090424;28;20469;-61
2021/07/04 04:57:29;;;;;;;9.07;8.27;;;;;;;;;;5092497;28;20492;-60
2021/07/04 04:59:57;;;;;;;8.63;7.83;;;;;;;;;;5092814;28;20564;-61
2021/07/04 05:02:24;;;;;;;9.10;8.30;;;;;;;;;;5093709;28;20442;-61
2021/07/04 05:04:52;;;;;;;9.63;8.63;;;;;;;;;;5093355;28;20474;-60
2021/07/04 05:07:19;;;;;;;9.67;8.70;;;;;;;;;;5092753;28;21079;-61
2021/07/04 05:09:47;;;;;;;9.57;8.57;;;;;;;;;;5091795;28;20497;-61
2021/07/04 05:12:14;;;;;;;10.20;9.20;;;;;;;;;;5092273;28;20822;-60
2021/07/04 05:14:41;;;;;;;10.13;9.07;;;;;;;;;;5094482;28;20470;-61
2021/07/04 05:17:10;;;;;;;9.30;8.40;;;;;;;;;;5091184;28;20439;-62
2021/07/04 05:19:37;;;;;;;9.57;8.67;;;;;;;;;;5077480;28;20524;-61
2021/07/04 05:22:07;;;;;;;9.30;8.40;;;;;;;;;;5076828;28;20452;-61
2021/07/04 05:24:35;;;;;;;9.60;8.07;;;;;;;;;;5076624;28;20831;-61
2021/07/04 05:27:02;;;;;;;9.03;8.13;;;;;;;;;;5075985;28;20497;-60
2021/07/04 05:29:29;;;;;;;8.97;8.23;;;;;;;;;;5075829;28;20533;-60
2021/07/04 05:31:57;;;;;;;11.37;8.60;;;;;;;;;;5075748;28;20451;-60
2021/07/04 05:34:26;;;;;;;9.63;8.63;;;;;;;;;;5076083;28;20589;-61
2021/07/04 05:36:54;;;;;;;11.30;8.73;;;;;;;;;;5076214;28;20442;-61
2021/07/04 05:39:21;;;;;;;9.57;8.67;;;;;;;;;;5075978;28;20501;-60
2021/07/04 05:41:49;;;;;;;11.70;8.67;;;;;;;;;;5075616;28;20455;-61
2021/07/04 05:44:16;;;;;;;9.27;8.13;;;;;;;;;;5075788;28;20459;-61
2021/07/04 05:46:43;;;;;;;8.63;7.93;;;;;;;;;;5075769;28;20471;-60
2021/07/04 05:49:11;;;;;;;9.73;8.83;;;;;;;;;;5077082;28;20501;-60
2021/07/04 05:51:40;;;;;;;9.47;8.57;;;;;;;;;;5076157;28;20456;-61
2021/07/04 05:54:08;;;;;;;9.83;8.93;;;;;;;;;;5075160;28;20532;-61
2021/07/04 05:56:35;;;;;;;9.83;8.83;;;;;;;;;;5075262;28;20451;-60
2021/07/04 05:59:02;;;;;;;10.33;8.33;;;;;;;;;;5075086;28;20954;-61
2021/07/04 06:01:30;;;;;;;10.63;8.90;;;;;;;;;;5075373;28;20500;-60
2021/07/04 06:03:57;;;;;;;9.33;8.30;;;;;;;;;;5075197;28;20466;-60
2021/07/04 06:06:24;;;;;;;9.37;8.60;;;;;;;;;;5074771;28;20467;-61
2021/07/04 06:08:53;;;;;;;11.13;9.40;;;;;;;;;;5077895;28;20500;-62
2021/07/04 06:11:20;;;;;;;9.70;8.70;;;;;;;;;;5079384;28;20454;-62
2021/07/04 06:13:48;;;;;;;10.20;9.30;;;;;;;;;;5077013;28;20510;-61
2021/07/04 06:16:15;;;;;;;10.63;9.33;;;;;;;;;;5075294;28;20443;-61
2021/07/04 06:18:42;;;;;;;9.67;8.70;;;;;;;;;;5075231;28;20838;-61
2021/07/04 06:21:10;;;;;;;10.00;9.00;;;;;;;;;;5074813;28;20517;-61
2021/07/04 06:23:37;;;;;;;9.77;8.70;;;;;;;;;;5074829;28;20861;-61
2021/07/04 06:26:06;;;;;;;9.40;8.60;;;;;;;;;;5074492;28;20950;-62
2021/07/04 06:28:33;;;;;;;9.33;8.53;;;;;;;;;;5074758;28;20490;-62
2021/07/04 06:31:00;;;;;;;9.07;7.60;;;;;;;;;;5073731;28;20504;-61
2021/07/04 06:33:27;;;;;;;10.07;9.07;;;;;;;;;;5074945;28;20536;-61
2021/07/04 06:35:55;;;;;;;9.30;8.50;;;;;;;;;;5074266;28;20504;-60
2021/07/04 06:38:22;;;;;;;8.57;7.80;;;;;;;;;;5075445;28;20458;-62
2021/07/04 06:40:49;;;;;;;9.60;8.70;;;;;;;;;;5074600;28;20439;-61
2021/07/04 06:43:18;;;;;;;9.53;8.73;;;;;;;;;;5074585;28;20855;-61
2021/07/04 06:45:45;;;;;;;10.57;9.70;;;;;;;;;;5074774;28;20459;-61
2021/07/04 06:48:13;;;;;;;9.43;8.00;;;;;;;;;;5074090;28;20995;-61
2021/07/04 06:50:40;;;;;;;10.50;8.90;;;;;;;;;;5074200;28;20455;-61
2021/07/04 06:53:08;;;;;;;9.47;8.67;;;;;;;;;;5073895;28;20443;-62
2021/07/04 06:55:35;;;;;;;9.83;9.00;;;;;;;;;;5074482;28;20448;-62
2021/07/04 06:58:02;;;;;;;9.23;8.43;;;;;;;;;;5074202;28;20459;-58
2021/07/04 07:00:31;;;;;;;8.60;7.90;;;;;;;;;;5074269;28;20453;-62
2021/07/04 07:02:58;;;;;;;10.63;9.77;;;;;;;;;;5073968;28;20986;-61
2021/07/04 07:05:25;;;;;;;10.00;8.97;;;;;;;;;;5073903;28;20469;-61
2021/07/04 07:07:53;;;;;;;9.50;8.60;;;;;;;;;;5073713;28;20533;-62
2021/07/04 07:10:20;;;;;;;8.83;7.93;;;;;;;;;;5074136;28;20502;-62
2021/07/04 07:12:47;;;;;;;9.30;8.50;;;;;;;;;;5074874;28;20450;-59
2021/07/04 07:15:15;;;;;;;8.80;7.73;;;;;;;;;;5075454;28;20881;-61
2021/07/04 07:17:44;;;;;;;9.00;8.20;;;;;;;;;;5074909;28;20446;-61
2021/07/04 07:20:12;;;;;;;9.87;9.00;;;;;;;;;;5075645;28;20937;-61
2021/07/04 07:22:39;;;;;;;9.63;8.27;;;;;;;;;;5075370;28;20934;-61
2021/07/04 07:25:07;;;;;;;8.93;8.13;;;;;;;;;;5074550;28;20467;-62
2021/07/04 07:27:34;;;;;;;8.33;7.63;;;;;;;;;;5074690;28;20511;-61
2021/07/04 07:30:02;;;;;;;10.50;9.40;;;;;;;;;;5074434;28;20501;-61
2021/07/04 07:32:29;;;;;;;9.40;7.77;;;;;;;;;;5074973;28;20927;-60
2021/07/04 07:34:57;;;;;;;10.20;9.30;;;;;;;;;;5073522;28;20463;-60
2021/07/04 07:37:26;;;;;;;8.87;8.00;;;;;;;;;;5074097;28;20851;-60
2021/07/04 07:39:54;;;;;;;9.30;8.40;;;;;;;;;;5073707;28;20542;-61
2021/07/04 07:42:21;;;;;;;9.20;8.30;;;;;;;;;;5074008;28;20502;-61
2021/07/04 07:44:48;;;;;;;9.33;8.63;;;;;;;;;;5073486;28;20467;-61
2021/07/04 07:47:15;;;;;;;9.30;8.40;;;;;;;;;;5073884;28;20497;-61
2021/07/04 07:49:43;;;;;;;9.67;8.77;;;;;;;;;;5073788;28;20447;-60
2021/07/04 07:52:11;;;;;;;8.80;8.00;;;;;;;;;;5073296;28;20478;-62
2021/07/04 07:54:39;;;;;;;9.03;8.23;;;;;;;;;;5078375;22;20993;-55
2021/07/04 07:57:07;;;;;;;9.17;8.37;;;;;;;;;;5033360;28;20449;-55
2021/07/04 07:59:35;;;;;;;8.70;7.80;;;;;;;;;;5033076;28;20494;-56
2021/07/04 08:02:02;;;;;;;9.60;8.80;;;;;;;;;;5032966;28;20843;-55
2021/07/04 08:04:30;;;;;;;10.77;9.80;;;;;;;;;;5033540;28;20474;-56
2021/07/04 08:06:57;;;;;;;10.10;9.10;;;;;;;;;;5033222;28;20502;-56
2021/07/04 08:09:26;;;;;;;10.30;9.30;;;;;;;;;;5032761;28;20480;-56
2021/07/04 08:11:53;;;;;;;8.90;8.20;;;;;;;;;;5032880;28;20476;-56
2021/07/04 08:14:20;;;;;;;10.50;9.67;;;;;;;;;;5033285;28;20465;-57
2021/07/04 08:16:48;;;;;;;9.70;8.80;;;;;;;;;;5033146;28;20504;-56
2021/07/04 08:19:15;;;;;;;9.43;8.60;;;;;;;;;;5033495;28;20997;-56
2021/07/04 08:21:43;;;;;;;10.13;9.07;;;;;;;;;;5033247;28;20450;-57
2021/07/04 08:24:10;;;;;;;9.70;8.80;;;;;;;;;;5033812;28;20497;-57
2021/07/04 08:26:39;;;;;;;8.87;8.00;;;;;;;;;;5033474;28;20452;-56
2021/07/04 08:29:06;;;;;;;10.13;8.30;;;;;;;;;;5032790;28;20533;-56
2021/07/04 08:31:34;;;;;;;10.50;9.40;;;;;;;;;;5033608;28;20515;-56
2021/07/04 08:34:01;;;;;;;9.70;8.80;;;;;;;;;;5033043;28;20472;-57
2021/07/04 08:36:30;;;;;;;8.93;8.03;;;;;;;;;;5032862;28;20507;-58
2021/07/04 08:38:58;;;;;;;8.97;8.17;;;;;;;;;;5032962;28;20452;-57
2021/07/04 08:41:25;;;;;;;9.30;8.53;;;;;;;;;;5032884;28;20458;-58
2021/07/04 08:43:54;;;;;;;9.80;8.90;;;;;;;;;;5032591;28;20470;-57
2021/07/04 08:46:21;;;;;;;9.30;8.50;;;;;;;;;;5032543;28;20450;-55
2021/07/04 08:48:49;;;;;;;8.63;7.93;;;;;;;;;;5032905;28;20473;-55
2021/07/04 08:51:16;;;;;;;10.23;7.50;;;;;;;;;;5032827;28;20443;-56
2021/07/04 08:53:43;;;;;;;8.33;7.53;;;;;;;;;;5033885;28;20441;-56
2021/07/04 08:56:10;;;;;;;7.90;7.30;;;;;;;;;;5036374;28;20431;-56
2021/07/04 08:58:38;;;;;;;8.73;8.03;;;;;;;;;;5036488;28;20498;-56
2021/07/04 09:01:24;;;;;;;9.70;8.70;;;;;;;;;;5036475;28;20446;-56
2021/07/04 09:03:53;;;;;;;8.10;7.23;;;;;;;;;;5036373;28;20464;-57
2021/07/04 09:06:35;;;;;;;9.30;8.50;;;;;;;;;;5036326;28;20443;-57
2021/07/04 09:09:13;;;;;;;8.10;7.47;;;;;;;;;;5036137;28;20472;-57
2021/07/04 09:11:51;;;;;;;8.53;7.77;;;;;;;;;;5035819;28;20435;-56
2021/07/04 09:14:18;;;;;;;9.87;9.07;;;;;;;;;;5035665;28;20602;-57
2021/07/04 09:16:49;;;;;;;7.90;7.20;;;;;;;;;;5035546;28;20463;-57
2021/07/04 09:19:17;;;;;;;10.03;9.10;;;;;;;;;;5035471;28;20450;-57
2021/07/04 09:21:45;;;;;;;8.93;8.13;;;;;;;;;;5035564;28;20449;-57
2021/07/04 09:24:22;;;;;;;8.50;7.80;;;;;;;;;;5035869;28;20528;-56
2021/07/04 09:26:50;;;;;;;8.10;7.40;;;;;;;;;;5036984;28;20428;-57
2021/07/04 09:29:17;;;;;;;9.50;8.33;;;;;;;;;;5035723;28;20532;-57
2021/07/04 09:31:44;;;;;;;9.37;8.47;;;;;;;;;;5035627;28;20452;-55
2021/07/04 09:34:12;;;;;;;9.00;8.20;;;;;;;;;;5035480;28;20475;-57
2021/07/04 09:36:42;;;;;;;8.53;7.73;;;;;;;;;;5035367;28;20940;-57
2021/07/04 09:39:16;;;;;;;8.23;7.53;;;;;;;;;;5035529;28;20817;-57
2021/07/04 09:41:58;;;;;;;8.63;7.73;;;;;;;;;;5034875;28;20459;-57
2021/07/04 09:44:26;;;;;;;12.30;11.20;;;;;;;;;;5035609;28;20875;-57
2021/07/04 09:47:08;;;;;;;8.10;7.40;;;;;;;;;;5035073;28;20495;-55
2021/07/04 09:49:35;;;;;;;9.33;8.43;;;;;;;;;;5034994;28;20478;-57
2021/07/04 09:52:13;;;;;;;8.10;7.30;;;;;;;;;;5034996;28;20931;-54
2021/07/04 09:54:53;;;;;;;8.90;8.00;;;;;;;;;;5035131;28;20481;-56
2021/07/04 09:57:20;;;;;;;9.37;8.47;;;;;;;;;;5035212;28;20529;-57
2021/07/04 09:59:48;;;;;;;8.93;8.20;;;;;;;;;;5035284;28;20438;-56
2021/07/04 10:02:15;;;;;;;8.77;7.90;;;;;;;;;;5035273;28;20485;-56
2021/07/04 10:04:43;;;;;;;8.87;8.07;;;;;;;;;;5035005;28;20820;-57
2021/07/04 10:07:10;;;;;;;8.13;7.43;;;;;;;;;;5035172;28;20453;-56
2021/07/04 10:09:40;;;;;;;8.43;7.73;;;;;;;;;;5034880;28;20481;-56
2021/07/04 10:12:08;;;;;;;9.60;8.70;;;;;;;;;;5034724;28;20849;-57
2021/07/04 10:14:37;;;;;;;9.07;8.17;;;;;;;;;;5034745;28;20458;-58
2021/07/04 10:17:04;;;;;;;9.10;8.20;;;;;;;;;;5034803;28;20462;-58
2021/07/04 10:19:32;;;;;;;8.50;7.60;;;;;;;;;;5035011;28;20452;-56
2021/07/04 10:22:00;;;;;;;7.93;7.13;;;;;;;;;;5034904;28;20452;-56
2021/07/04 10:24:28;;;;;;;8.20;7.50;;;;;;;;;;5034816;28;20529;-57
2021/07/04 10:26:58;;;;;;;8.07;7.37;;;;;;;;;;5034969;28;20861;-57
2021/07/04 10:29:27;;;;;;;8.33;7.63;;;;;;;;;;5034706;28;20561;-57
2021/07/04 10:31:54;;;;;;;8.33;7.57;;;;;;;;;;5034738;28;20452;-57
2021/07/04 10:34:27;;;;;;;8.00;7.40;;;;;;;;;;5034602;28;20973;-57
2021/07/04 10:36:57;;;;;;;6.43;5.93;;;;;;;;;;5034802;28;20504;-56
2021/07/04 10:39:25;;;;;;;7.00;6.40;;;;;;;;;;5034215;28;20447;-56
2021/07/04 10:41:57;;;;;;;6.90;6.27;;;;;;;;;;5034429;28;20947;-57
2021/07/04 10:44:39;;;;;;;7.27;6.67;;;;;;;;;;5034562;28;20519;-56
2021/07/04 10:47:10;;;;;;;9.90;8.27;;;;;;;;;;5032397;28;20447;-57
2021/07/04 10:49:42;;;;;;;6.90;6.30;;;;;;;;;;5034444;28;20565;-56
2021/07/04 10:52:11;;;;;;;6.37;5.80;;;;;;;;;;5034049;28;20935;-57
2021/07/04 10:54:46;;;;;;;7.17;6.17;;;;;;;;;;5034324;28;20494;-59
2021/07/04 10:57:15;;;;;;;7.20;6.60;;;;;;;;;;5034398;28;20444;-58
2021/07/04 11:00:12;;;;;;;6.50;6.00;;;;;;;;;;5034270;28;20499;-59
2021/07/04 11:02:41;;;;;;;6.53;5.90;;;;;;;;;;5034331;28;20452;-57
2021/07/04 11:05:08;;;;;;;6.43;5.83;;;;;;;;;;5033861;28;20475;-58
2021/07/04 11:07:54;;;;;;;5.53;5.13;;;;;;;;;;5034124;28;20450;-57
2021/07/04 11:10:23;;;;;;;6.27;5.77;;;;;;;;;;5033497;28;20541;-56
2021/07/04 11:12:52;;;;;;;6.10;5.60;;;;;;;;;;5033635;28;20455;-57
2021/07/04 11:15:26;;;;;;;7.93;5.77;;;;;;;;;;5033403;28;20464;-56
2021/07/04 11:18:03;;;;;;;5.87;5.37;;;;;;;;;;5033627;28;20452;-57
2021/07/04 11:20:31;;;;;;;5.87;5.37;;;;;;;;;;5033974;28;20491;-56
2021/07/04 11:22:59;;;;;;;5.90;5.40;;;;;;;;;;5033590;28;20449;-58
2021/07/04 11:25:27;;;;;;;6.67;6.03;;;;;;;;;;5033958;28;20521;-57
2021/07/04 11:28:21;;;;;;;7.17;6.57;;;;;;;;;;5033452;28;20505;-57
2021/07/04 11:30:50;;;;;;;8.63;6.83;;;;;;;;;;4998453;28;20459;-58
2021/07/04 11:33:31;;;;;;;7.53;6.83;;;;;;;;;;5033850;28;20440;-57
2021/07/04 11:36:00;;;;;;;6.10;5.50;;;;;;;;;;5033522;28;20477;-58
2021/07/04 11:38:28;;;;;;;6.97;6.37;;;;;;;;;;5033579;28;20444;-57
2021/07/04 11:40:56;;;;;;;7.03;6.43;;;;;;;;;;5033143;28;21004;-57
2021/07/04 11:43:25;;;;;;;6.80;6.30;;;;;;;;;;5033515;28;20451;-56
2021/07/04 11:45:54;;;;;;;7.00;6.27;;;;;;;;;;5033500;28;20507;-57
2021/07/04 11:48:22;;;;;;;7.60;6.90;;;;;;;;;;5033383;28;20499;-57
2021/07/04 11:50:50;;;;;;;6.43;5.87;;;;;;;;;;5033557;28;20447;-58
2021/07/04 11:53:18;;;;;;;6.10;5.60;;;;;;;;;;5033349;28;20447;-58
2021/07/04 11:55:59;;;;;;;6.63;6.10;;;;;;;;;;5033882;28;20478;-57
2021/07/04 11:58:26;;;;;;;7.00;6.40;;;;;;;;;;5033295;28;20442;-57
2021/07/04 12:00:55;;;;;;;6.60;6.10;;;;;;;;;;5033174;28;20532;-57
2021/07/04 12:03:23;;;;;;;5.90;5.10;;;;;;;;;;5033401;28;20513;-58
2021/07/04 12:05:51;;;;;;;6.47;5.87;;;;;;;;;;5033122;28;20476;-56
2021/07/04 12:08:18;;;;;;;6.43;5.93;;;;;;;;;;5033234;28;20454;-58
2021/07/04 12:10:52;;;;;;;6.63;6.07;;;;;;;;;;5033207;28;20445;-58
2021/07/04 12:13:20;;;;;;;5.43;5.03;;;;;;;;;;5032826;28;20430;-57
2021/07/04 12:15:52;;;;;;;6.60;6.10;;;;;;;;;;5032514;28;20990;-57
2021/07/04 12:18:22;;;;;;;5.77;5.37;;;;;;;;;;5033038;28;20455;-56
2021/07/04 12:20:53;;;;;;;6.37;5.77;;;;;;;;;;5033371;28;20447;-58
2021/07/04 12:23:21;;;;;;;6.20;5.70;;;;;;;;;;5032662;28;20449;-55
2021/07/04 12:25:48;;;;;;;6.67;5.23;;;;;;;;;;5032820;28;20525;-57
2021/07/04 12:28:16;;;;;;;5.77;5.27;;;;;;;;;;5033686;28;20496;-57
2021/07/04 12:30:45;;;;;;;5.87;5.07;;;;;;;;;;5036559;28;20487;-57
2021/07/04 12:33:13;;;;;;;6.30;5.80;;;;;;;;;;5036766;28;20450;-57
2021/07/04 12:35:43;;;;;;;5.87;5.37;;;;;;;;;;5036205;28;20463;-57
2021/07/04 12:38:12;;;;;;;6.23;5.73;;;;;;;;;;5036315;28;20806;-56
2021/07/04 12:40:49;;;;;;;5.20;4.80;;;;;;;;;;5036748;28;20454;-57
2021/07/04 12:43:17;;;;;;;6.13;5.53;;;;;;;;;;5037298;28;20780;-55
2021/07/04 12:45:45;;;;;;;5.43;4.93;;;;;;;;;;5036501;28;20460;-57
2021/07/04 12:48:12;;;;;;;5.90;5.30;;;;;;;;;;5036105;28;20440;-57
2021/07/04 12:50:42;;;;;;;5.30;4.87;;;;;;;;;;5036473;28;20484;-57
2021/07/04 12:53:10;;;;;;;5.27;4.70;;;;;;;;;;5036418;28;20448;-57
2021/07/04 12:55:41;;;;;;;5.60;5.20;;;;;;;;;;5036264;28;21015;-57
2021/07/04 12:58:25;;;;;;;6.53;5.97;;;;;;;;;;5036180;28;20441;-57
2021/07/04 13:00:53;;;;;;;6.10;5.63;;;;;;;;;;5036062;28;20431;-57
2021/07/04 13:03:54;;;;;;;6.93;4.80;;;;;;;;;;5036104;28;20456;-57
2021/07/04 13:06:36;;;;;;;5.80;5.17;;;;;;;;;;4975024;28;20560;-57
2021/07/04 13:09:05;;;;;;;5.90;5.50;;;;;;;;;;4973589;28;21070;-57
2021/07/04 13:11:33;;;;;;;5.70;5.20;;;;;;;;;;5009368;28;20516;-57
2021/07/04 13:14:01;;;;;;;6.40;5.90;;;;;;;;;;5035646;28;20529;-56
2021/07/04 13:16:28;;;;;;;5.53;5.03;;;;;;;;;;5035978;28;20528;-57
2021/07/04 13:18:56;;;;;;;5.33;4.93;;;;;;;;;;5035857;28;20442;-57
2021/07/04 13:21:33;;;;;;;6.00;5.50;;;;;;;;;;5035854;28;20459;-56
2021/07/04 13:24:22;;;;;;;6.17;5.67;;;;;;;;;;5035914;28;20470;-57
2021/07/04 13:26:50;;;;;;;5.67;5.20;;;;;;;;;;5035815;28;20545;-57
2021/07/04 13:29:19;;;;;;;5.90;5.33;;;;;;;;;;5035498;28;21057;-57
2021/07/04 13:32:01;;;;;;;6.33;5.73;;;;;;;;;;5035678;28;20504;-57
2021/07/04 13:34:28;;;;;;;8.17;7.27;;;;;;;;;;5035135;28;20465;-57
2021/07/04 13:36:56;;;;;;;6.57;5.97;;;;;;;;;;5035072;28;20850;-56
2021/07/04 13:39:25;;;;;;;5.23;4.83;;;;;;;;;;5034981;28;20497;-56
2021/07/04 13:41:52;;;;;;;5.80;5.27;;;;;;;;;;5035293;28;21077;-56
2021/07/04 13:44:19;;;;;;;6.07;5.57;;;;;;;;;;5035282;28;20976;-56
2021/07/04 13:46:47;;;;;;;5.10;4.70;;;;;;;;;;5035494;28;20499;-57
2021/07/04 13:49:14;;;;;;;5.83;5.20;;;;;;;;;;5035245;28;20531;-57
2021/07/04 13:51:41;;;;;;;6.07;5.53;;;;;;;;;;5035338;28;20450;-56
2021/07/04 13:54:08;;;;;;;6.93;4.80;;;;;;;;;;5035024;28;20495;-56
2021/07/04 13:56:37;;;;;;;6.40;5.80;;;;;;;;;;5035127;28;20434;-56
2021/07/04 13:59:04;;;;;;;5.67;5.20;;;;;;;;;;5035314;28;20454;-58
2021/07/04 14:01:32;;;;;;;5.57;5.17;;;;;;;;;;5035220;28;20443;-56
2021/07/04 14:03:59;;;;;;;6.00;5.50;;;;;;;;;;5035887;28;20494;-57
2021/07/04 14:06:26;;;;;;;5.27;4.83;;;;;;;;;;5035353;28;20450;-56
2021/07/04 14:08:53;;;;;;;6.43;5.90;;;;;;;;;;5035339;28;20444;-56
2021/07/04 14:11:21;;;;;;;7.07;5.50;;;;;;;;;;5035168;28;20487;-57
2021/07/04 14:13:49;;;;;;;6.10;5.60;;;;;;;;;;5034964;28;20454;-57
2021/07/04 14:16:16;;;;;;;6.10;5.50;;;;;;;;;;5034998;28;20458;-57
2021/07/04 14:18:44;;;;;;;9.23;5.30;;;;;;;;;;5034633;28;20449;-58
2021/07/04 14:21:11;;;;;;;5.43;4.93;;;;;;;;;;5034760;28;20439;-57
2021/07/04 14:23:39;;;;;;;7.73;7.03;;;;;;;;;;5035603;28;20457;-56
2021/07/04 14:26:06;;;;;;;5.33;4.93;;;;;;;;;;5068534;22;20498;-58
2021/07/04 14:28:33;;;;;;;7.30;6.70;;;;;;;;;;5034229;28;20438;-58
2021/07/04 14:31:02;;;;;;;6.20;5.70;;;;;;;;;;5034667;28;20551;-58
2021/07/04 14:33:30;;;;;;;6.30;5.70;;;;;;;;;;5035104;28;20465;-58
2021/07/04 14:35:57;;;;;;;6.53;6.03;;;;;;;;;;5034520;28;20524;-58
2021/07/04 14:38:24;;;;;;;9.43;8.43;;;;;;;;;;5034454;28;20458;-57
2021/07/04 14:40:51;;;;;;;35.00;31.80;;;;;;;;;;5034506;28;20498;-57
2021/07/04 14:43:19;;;;;;;7.73;7.20;;;;;;;;;;5035215;28;20462;-57
2021/07/04 14:45:46;;;;;;;6.03;5.53;;;;;;;;;;5034748;28;20474;-58